sensor_id;sensor_type;location;lat;lon;timestamp;P1;durP1;ratioP1;P2;durP2;ratioP2
80175;SDS011;71945;42.122;24.732;2023-08-08T00:01:36;4.93;;;3.00;;
80175;SDS011;71945;42.122;24.732;2023-08-08T00:04:02;2.72;;;2.53;;
80175;SDS011;71945;42.122;24.732;2023-08-08T00:06:28;4.68;;;2.95;;
80175;SDS011;71945;42.122;24.732;2023-08-08T00:08:53;3.65;;;2.60;;
80175;SDS011;71945;42.122;24.732;2023-08-08T00:11:19;3.05;;;2.75;;
80175;SDS011;71945;42.122;24.732;2023-08-08T00:13:45;2.92;;;2.72;;
80175;SDS011;71945;42.122;24.732;2023-08-08T00:16:11;4.00;;;3.25;;
80175;SDS011;71945;42.122;24.732;2023-08-08T00:18:36;3.45;;;3.15;;
80175;SDS011;71945;42.122;24.732;2023-08-08T00:21:02;3.15;;;2.60;;
80175;SDS011;71945;42.122;24.732;2023-08-08T00:23:28;2.70;;;2.38;;
80175;SDS011;71945;42.122;24.732;2023-08-08T00:25:53;3.67;;;2.33;;
80175;SDS011;71945;42.122;24.732;2023-08-08T00:28:19;4.13;;;2.38;;
80175;SDS011;71945;42.122;24.732;2023-08-08T00:30:45;2.78;;;2.40;;
80175;SDS011;71945;42.122;24.732;2023-08-08T00:33:10;3.00;;;2.22;;
80175;SDS011;71945;42.122;24.732;2023-08-08T00:35:36;2.75;;;2.40;;
80175;SDS011;71945;42.122;24.732;2023-08-08T00:38:02;3.20;;;2.58;;
80175;SDS011;71945;42.122;24.732;2023-08-08T00:40:27;2.30;;;2.10;;
80175;SDS011;71945;42.122;24.732;2023-08-08T00:42:53;3.72;;;2.42;;
80175;SDS011;71945;42.122;24.732;2023-08-08T00:45:19;2.25;;;2.05;;
80175;SDS011;71945;42.122;24.732;2023-08-08T00:47:44;2.78;;;2.08;;
80175;SDS011;71945;42.122;24.732;2023-08-08T00:50:10;2.65;;;1.98;;
80175;SDS011;71945;42.122;24.732;2023-08-08T00:52:37;3.53;;;1.92;;
80175;SDS011;71945;42.122;24.732;2023-08-08T00:55:04;5.47;;;2.33;;
80175;SDS011;71945;42.122;24.732;2023-08-08T00:57:30;2.25;;;1.77;;
80175;SDS011;71945;42.122;24.732;2023-08-08T00:59:56;2.78;;;1.85;;
80175;SDS011;71945;42.122;24.732;2023-08-08T01:02:22;2.28;;;2.08;;
80175;SDS011;71945;42.122;24.732;2023-08-08T01:04:48;2.05;;;1.70;;
80175;SDS011;71945;42.122;24.732;2023-08-08T01:09:51;1.48;;;1.30;;
80175;SDS011;71945;42.122;24.732;2023-08-08T01:12:21;3.00;;;1.63;;
80175;SDS011;71945;42.122;24.732;2023-08-08T01:14:50;3.10;;;1.65;;
80175;SDS011;71945;42.122;24.732;2023-08-08T01:17:16;2.58;;;1.83;;
80175;SDS011;71945;42.122;24.732;2023-08-08T01:19:43;2.13;;;1.35;;
80175;SDS011;71945;42.122;24.732;2023-08-08T01:22:12;3.17;;;1.38;;
80175;SDS011;71945;42.122;24.732;2023-08-08T01:24:41;2.63;;;1.02;;
80175;SDS011;71945;42.122;24.732;2023-08-08T01:27:09;3.22;;;1.00;;
80175;SDS011;71945;42.122;24.732;2023-08-08T01:29:36;2.63;;;0.98;;
80175;SDS011;71945;42.122;24.732;2023-08-08T01:32:02;1.17;;;1.00;;
80175;SDS011;71945;42.122;24.732;2023-08-08T01:34:28;0.82;;;0.77;;
80175;SDS011;71945;42.122;24.732;2023-08-08T01:36:55;0.77;;;0.77;;
80175;SDS011;71945;42.122;24.732;2023-08-08T01:39:27;3.13;;;1.10;;
80175;SDS011;71945;42.122;24.732;2023-08-08T01:41:55;3.30;;;1.10;;
80175;SDS011;71945;42.122;24.732;2023-08-08T01:44:23;1.08;;;0.80;;
80175;SDS011;71945;42.122;24.732;2023-08-08T01:46:52;1.60;;;0.90;;
80175;SDS011;71945;42.122;24.732;2023-08-08T01:49:18;2.15;;;1.00;;
80175;SDS011;71945;42.122;24.732;2023-08-08T01:51:44;1.63;;;1.00;;
80175;SDS011;71945;42.122;24.732;2023-08-08T01:54:10;1.67;;;1.15;;
80175;SDS011;71945;42.122;24.732;2023-08-08T01:56:36;1.30;;;1.20;;
80175;SDS011;71945;42.122;24.732;2023-08-08T01:59:01;4.22;;;0.93;;
80175;SDS011;71945;42.122;24.732;2023-08-08T02:01:27;0.90;;;0.90;;
80175;SDS011;71945;42.122;24.732;2023-08-08T02:03:53;3.20;;;1.02;;
80175;SDS011;71945;42.122;24.732;2023-08-08T02:06:18;5.35;;;1.00;;
80175;SDS011;71945;42.122;24.732;2023-08-08T02:08:44;2.10;;;1.13;;
80175;SDS011;71945;42.122;24.732;2023-08-08T02:11:10;1.40;;;1.30;;
80175;SDS011;71945;42.122;24.732;2023-08-08T02:13:36;2.67;;;1.23;;
80175;SDS011;71945;42.122;24.732;2023-08-08T02:16:02;2.20;;;2.00;;
80175;SDS011;71945;42.122;24.732;2023-08-08T02:18:27;1.30;;;1.13;;
80175;SDS011;71945;42.122;24.732;2023-08-08T02:20:53;1.10;;;1.00;;
80175;SDS011;71945;42.122;24.732;2023-08-08T02:23:19;4.78;;;1.30;;
80175;SDS011;71945;42.122;24.732;2023-08-08T02:25:44;4.78;;;0.95;;
80175;SDS011;71945;42.122;24.732;2023-08-08T02:28:10;1.88;;;1.23;;
80175;SDS011;71945;42.122;24.732;2023-08-08T02:30:36;1.05;;;0.90;;
80175;SDS011;71945;42.122;24.732;2023-08-08T02:33:02;1.75;;;1.02;;
80175;SDS011;71945;42.122;24.732;2023-08-08T02:35:27;1.60;;;0.93;;
80175;SDS011;71945;42.122;24.732;2023-08-08T02:37:53;4.00;;;1.00;;
80175;SDS011;71945;42.122;24.732;2023-08-08T02:40:19;1.35;;;1.00;;
80175;SDS011;71945;42.122;24.732;2023-08-08T02:42:44;2.70;;;1.00;;
80175;SDS011;71945;42.122;24.732;2023-08-08T02:45:10;2.00;;;0.98;;
80175;SDS011;71945;42.122;24.732;2023-08-08T02:47:36;2.20;;;1.15;;
80175;SDS011;71945;42.122;24.732;2023-08-08T02:50:01;1.13;;;1.02;;
80175;SDS011;71945;42.122;24.732;2023-08-08T02:52:27;1.42;;;0.85;;
80175;SDS011;71945;42.122;24.732;2023-08-08T02:54:53;3.35;;;1.10;;
80175;SDS011;71945;42.122;24.732;2023-08-08T02:57:18;3.20;;;1.10;;
80175;SDS011;71945;42.122;24.732;2023-08-08T02:59:44;1.58;;;1.10;;
80175;SDS011;71945;42.122;24.732;2023-08-08T03:02:10;1.60;;;1.50;;
80175;SDS011;71945;42.122;24.732;2023-08-08T03:04:35;1.40;;;1.30;;
80175;SDS011;71945;42.122;24.732;2023-08-08T03:09:36;1.17;;;1.08;;
80175;SDS011;71945;42.122;24.732;2023-08-08T03:12:02;1.10;;;1.00;;
80175;SDS011;71945;42.122;24.732;2023-08-08T03:14:28;1.05;;;1.05;;
80175;SDS011;71945;42.122;24.732;2023-08-08T03:16:54;3.05;;;1.38;;
80175;SDS011;71945;42.122;24.732;2023-08-08T03:19:20;1.40;;;1.27;;
80175;SDS011;71945;42.122;24.732;2023-08-08T03:21:45;3.17;;;1.60;;
80175;SDS011;71945;42.122;24.732;2023-08-08T03:24:11;3.15;;;1.20;;
80175;SDS011;71945;42.122;24.732;2023-08-08T03:26:37;3.08;;;1.30;;
80175;SDS011;71945;42.122;24.732;2023-08-08T03:29:02;3.03;;;1.17;;
80175;SDS011;71945;42.122;24.732;2023-08-08T03:31:28;1.48;;;1.35;;
80175;SDS011;71945;42.122;24.732;2023-08-08T03:33:54;1.13;;;1.02;;
80175;SDS011;71945;42.122;24.732;2023-08-08T03:36:19;2.47;;;1.60;;
80175;SDS011;71945;42.122;24.732;2023-08-08T03:38:45;2.90;;;1.17;;
80175;SDS011;71945;42.122;24.732;2023-08-08T03:41:11;1.30;;;1.20;;
80175;SDS011;71945;42.122;24.732;2023-08-08T03:43:38;2.80;;;1.17;;
80175;SDS011;71945;42.122;24.732;2023-08-08T03:46:04;5.15;;;1.35;;
80175;SDS011;71945;42.122;24.732;2023-08-08T03:48:30;1.05;;;0.95;;
80175;SDS011;71945;42.122;24.732;2023-08-08T03:50:56;2.25;;;1.30;;
80175;SDS011;71945;42.122;24.732;2023-08-08T03:53:21;1.75;;;1.58;;
80175;SDS011;71945;42.122;24.732;2023-08-08T03:55:47;1.83;;;1.20;;
80175;SDS011;71945;42.122;24.732;2023-08-08T03:58:13;1.65;;;1.40;;
80175;SDS011;71945;42.122;24.732;2023-08-08T04:00:38;3.67;;;1.52;;
80175;SDS011;71945;42.122;24.732;2023-08-08T04:03:11;6.07;;;2.50;;
80175;SDS011;71945;42.122;24.732;2023-08-08T04:05:40;2.75;;;1.48;;
80175;SDS011;71945;42.122;24.732;2023-08-08T04:08:06;7.57;;;1.40;;
80175;SDS011;71945;42.122;24.732;2023-08-08T04:10:32;1.70;;;1.50;;
80175;SDS011;71945;42.122;24.732;2023-08-08T04:12:58;4.65;;;1.67;;
80175;SDS011;71945;42.122;24.732;2023-08-08T04:15:24;4.82;;;2.00;;
80175;SDS011;71945;42.122;24.732;2023-08-08T04:17:49;4.45;;;2.75;;
80175;SDS011;71945;42.122;24.732;2023-08-08T04:20:15;7.88;;;1.77;;
80175;SDS011;71945;42.122;24.732;2023-08-08T04:22:44;7.45;;;2.15;;
80175;SDS011;71945;42.122;24.732;2023-08-08T04:25:09;2.30;;;1.90;;
80175;SDS011;71945;42.122;24.732;2023-08-08T04:27:35;3.00;;;1.88;;
80175;SDS011;71945;42.122;24.732;2023-08-08T04:30:00;3.38;;;2.05;;
80175;SDS011;71945;42.122;24.732;2023-08-08T04:32:27;3.88;;;1.90;;
80175;SDS011;71945;42.122;24.732;2023-08-08T04:34:53;2.42;;;1.75;;
80175;SDS011;71945;42.122;24.732;2023-08-08T04:37:19;1.83;;;1.67;;
80175;SDS011;71945;42.122;24.732;2023-08-08T04:39:45;4.85;;;1.80;;
80175;SDS011;71945;42.122;24.732;2023-08-08T04:42:10;3.03;;;1.50;;
80175;SDS011;71945;42.122;24.732;2023-08-08T04:44:36;1.42;;;1.33;;
80175;SDS011;71945;42.122;24.732;2023-08-08T04:47:02;3.85;;;1.67;;
80175;SDS011;71945;42.122;24.732;2023-08-08T04:49:27;2.35;;;1.58;;
80175;SDS011;71945;42.122;24.732;2023-08-08T04:51:54;3.17;;;1.88;;
80175;SDS011;71945;42.122;24.732;2023-08-08T04:54:19;2.55;;;1.98;;
80175;SDS011;71945;42.122;24.732;2023-08-08T04:56:45;3.60;;;2.53;;
80175;SDS011;71945;42.122;24.732;2023-08-08T04:59:10;3.38;;;2.05;;
80175;SDS011;71945;42.122;24.732;2023-08-08T05:01:36;2.60;;;2.13;;
80175;SDS011;71945;42.122;24.732;2023-08-08T05:04:02;3.40;;;2.10;;
80175;SDS011;71945;42.122;24.732;2023-08-08T05:06:27;2.78;;;2.00;;
80175;SDS011;71945;42.122;24.732;2023-08-08T05:08:53;3.20;;;1.73;;
80175;SDS011;71945;42.122;24.732;2023-08-08T05:11:19;2.08;;;1.77;;
80175;SDS011;71945;42.122;24.732;2023-08-08T05:13:44;5.05;;;1.90;;
80175;SDS011;71945;42.122;24.732;2023-08-08T05:16:10;2.50;;;1.95;;
80175;SDS011;71945;42.122;24.732;2023-08-08T05:18:36;4.00;;;2.05;;
80175;SDS011;71945;42.122;24.732;2023-08-08T05:21:01;2.60;;;1.80;;
80175;SDS011;71945;42.122;24.732;2023-08-08T05:23:27;2.97;;;1.70;;
80175;SDS011;71945;42.122;24.732;2023-08-08T05:25:53;2.42;;;2.08;;
80175;SDS011;71945;42.122;24.732;2023-08-08T05:28:18;2.00;;;1.85;;
80175;SDS011;71945;42.122;24.732;2023-08-08T05:30:44;3.78;;;2.10;;
80175;SDS011;71945;42.122;24.732;2023-08-08T05:33:09;2.30;;;2.10;;
80175;SDS011;71945;42.122;24.732;2023-08-08T05:35:35;4.43;;;2.00;;
80175;SDS011;71945;42.122;24.732;2023-08-08T05:38:01;2.15;;;1.95;;
80175;SDS011;71945;42.122;24.732;2023-08-08T05:40:26;4.22;;;1.77;;
80175;SDS011;71945;42.122;24.732;2023-08-08T05:42:52;3.80;;;1.90;;
80175;SDS011;71945;42.122;24.732;2023-08-08T05:45:18;3.25;;;2.03;;
80175;SDS011;71945;42.122;24.732;2023-08-08T05:47:43;2.25;;;2.00;;
80175;SDS011;71945;42.122;24.732;2023-08-08T05:50:09;2.42;;;1.77;;
80175;SDS011;71945;42.122;24.732;2023-08-08T05:52:35;5.95;;;2.25;;
80175;SDS011;71945;42.122;24.732;2023-08-08T05:55:00;1.98;;;1.80;;
80175;SDS011;71945;42.122;24.732;2023-08-08T05:57:26;2.63;;;2.38;;
80175;SDS011;71945;42.122;24.732;2023-08-08T05:59:52;5.80;;;2.40;;
80175;SDS011;71945;42.122;24.732;2023-08-08T06:02:17;3.35;;;2.42;;
80175;SDS011;71945;42.122;24.732;2023-08-08T06:04:43;4.30;;;2.42;;
80175;SDS011;71945;42.122;24.732;2023-08-08T06:07:09;3.75;;;2.35;;
80175;SDS011;71945;42.122;24.732;2023-08-08T06:09:35;3.33;;;2.00;;
80175;SDS011;71945;42.122;24.732;2023-08-08T06:12:02;3.17;;;2.67;;
80175;SDS011;71945;42.122;24.732;2023-08-08T06:14:28;2.30;;;2.15;;
80175;SDS011;71945;42.122;24.732;2023-08-08T06:16:55;5.95;;;2.20;;
80175;SDS011;71945;42.122;24.732;2023-08-08T06:19:20;2.40;;;2.30;;
80175;SDS011;71945;42.122;24.732;2023-08-08T06:21:46;2.80;;;2.20;;
80175;SDS011;71945;42.122;24.732;2023-08-08T06:24:12;3.05;;;2.47;;
80175;SDS011;71945;42.122;24.732;2023-08-08T06:26:37;2.80;;;2.60;;
80175;SDS011;71945;42.122;24.732;2023-08-08T06:29:03;2.85;;;2.50;;
80175;SDS011;71945;42.122;24.732;2023-08-08T06:31:29;3.38;;;2.65;;
80175;SDS011;71945;42.122;24.732;2023-08-08T06:33:55;5.85;;;2.47;;
80175;SDS011;71945;42.122;24.732;2023-08-08T06:36:21;7.13;;;2.72;;
80175;SDS011;71945;42.122;24.732;2023-08-08T06:38:46;3.03;;;2.83;;
80175;SDS011;71945;42.122;24.732;2023-08-08T06:41:12;4.75;;;2.17;;
80175;SDS011;71945;42.122;24.732;2023-08-08T06:43:38;3.90;;;2.80;;
80175;SDS011;71945;42.122;24.732;2023-08-08T06:46:04;2.88;;;2.28;;
80175;SDS011;71945;42.122;24.732;2023-08-08T06:48:30;2.63;;;2.45;;
80175;SDS011;71945;42.122;24.732;2023-08-08T06:50:55;3.80;;;2.40;;
80175;SDS011;71945;42.122;24.732;2023-08-08T06:53:21;2.47;;;2.17;;
80175;SDS011;71945;42.122;24.732;2023-08-08T06:55:47;2.80;;;2.42;;
80175;SDS011;71945;42.122;24.732;2023-08-08T06:58:13;4.07;;;2.63;;
80175;SDS011;71945;42.122;24.732;2023-08-08T07:00:39;2.88;;;2.22;;
80175;SDS011;71945;42.122;24.732;2023-08-08T07:03:05;3.00;;;2.70;;
80175;SDS011;71945;42.122;24.732;2023-08-08T07:05:31;3.00;;;2.80;;
80175;SDS011;71945;42.122;24.732;2023-08-08T07:07:56;2.65;;;2.45;;
80175;SDS011;71945;42.122;24.732;2023-08-08T07:10:22;2.78;;;2.40;;
80175;SDS011;71945;42.122;24.732;2023-08-08T07:12:48;3.38;;;2.22;;
80175;SDS011;71945;42.122;24.732;2023-08-08T07:15:14;2.47;;;2.30;;
80175;SDS011;71945;42.122;24.732;2023-08-08T07:17:39;2.65;;;2.47;;
80175;SDS011;71945;42.122;24.732;2023-08-08T07:20:05;3.75;;;2.88;;
80175;SDS011;71945;42.122;24.732;2023-08-08T07:22:32;2.75;;;2.55;;
80175;SDS011;71945;42.122;24.732;2023-08-08T07:24:58;7.65;;;6.65;;
80175;SDS011;71945;42.122;24.732;2023-08-08T07:27:25;6.07;;;5.55;;
80175;SDS011;71945;42.122;24.732;2023-08-08T07:29:52;5.20;;;3.92;;
80175;SDS011;71945;42.122;24.732;2023-08-08T07:32:17;3.40;;;3.08;;
80175;SDS011;71945;42.122;24.732;2023-08-08T07:34:43;3.05;;;2.55;;
80175;SDS011;71945;42.122;24.732;2023-08-08T07:37:09;3.28;;;3.00;;
80175;SDS011;71945;42.122;24.732;2023-08-08T07:39:34;3.78;;;2.90;;
80175;SDS011;71945;42.122;24.732;2023-08-08T07:42:00;3.95;;;3.60;;
80175;SDS011;71945;42.122;24.732;2023-08-08T07:44:26;4.85;;;3.88;;
80175;SDS011;71945;42.122;24.732;2023-08-08T07:46:51;3.30;;;3.00;;
80175;SDS011;71945;42.122;24.732;2023-08-08T07:49:19;3.92;;;3.55;;
80175;SDS011;71945;42.122;24.732;2023-08-08T07:51:45;4.30;;;3.90;;
80175;SDS011;71945;42.122;24.732;2023-08-08T07:54:11;2.85;;;2.63;;
80175;SDS011;71945;42.122;24.732;2023-08-08T07:56:36;2.97;;;2.78;;
80175;SDS011;71945;42.122;24.732;2023-08-08T07:59:02;2.42;;;2.22;;
80175;SDS011;71945;42.122;24.732;2023-08-08T08:01:29;2.90;;;2.70;;
80175;SDS011;71945;42.122;24.732;2023-08-08T08:03:54;2.83;;;2.60;;
80175;SDS011;71945;42.122;24.732;2023-08-08T08:06:20;2.40;;;2.20;;
80175;SDS011;71945;42.122;24.732;2023-08-08T08:08:46;2.13;;;2.03;;
80175;SDS011;71945;42.122;24.732;2023-08-08T08:11:12;6.53;;;2.40;;
80175;SDS011;71945;42.122;24.732;2023-08-08T08:13:38;4.03;;;1.98;;
80175;SDS011;71945;42.122;24.732;2023-08-08T08:16:04;4.05;;;2.00;;
80175;SDS011;71945;42.122;24.732;2023-08-08T08:18:30;2.00;;;1.83;;
80175;SDS011;71945;42.122;24.732;2023-08-08T08:20:57;2.67;;;2.00;;
80175;SDS011;71945;42.122;24.732;2023-08-08T08:23:22;2.47;;;2.15;;
80175;SDS011;71945;42.122;24.732;2023-08-08T08:25:48;3.25;;;2.17;;
80175;SDS011;71945;42.122;24.732;2023-08-08T08:28:15;2.42;;;2.13;;
80175;SDS011;71945;42.122;24.732;2023-08-08T08:30:41;2.65;;;2.20;;
80175;SDS011;71945;42.122;24.732;2023-08-08T08:33:08;2.13;;;1.88;;
80175;SDS011;71945;42.122;24.732;2023-08-08T08:35:40;3.92;;;1.95;;
80175;SDS011;71945;42.122;24.732;2023-08-08T08:38:28;2.92;;;1.88;;
80175;SDS011;71945;42.122;24.732;2023-08-08T08:40:54;2.00;;;1.90;;
80175;SDS011;71945;42.122;24.732;2023-08-08T08:43:21;3.15;;;2.20;;
80175;SDS011;71945;42.122;24.732;2023-08-08T08:46:09;2.30;;;2.20;;
80175;SDS011;71945;42.122;24.732;2023-08-08T08:48:35;3.03;;;2.17;;
80175;SDS011;71945;42.122;24.732;2023-08-08T08:51:04;1.90;;;1.80;;
80175;SDS011;71945;42.122;24.732;2023-08-08T08:53:30;2.20;;;1.90;;
80175;SDS011;71945;42.122;24.732;2023-08-08T08:55:56;2.58;;;1.80;;
80175;SDS011;71945;42.122;24.732;2023-08-08T08:58:23;4.65;;;2.10;;
80175;SDS011;71945;42.122;24.732;2023-08-08T09:00:50;5.25;;;1.73;;
80175;SDS011;71945;42.122;24.732;2023-08-08T09:03:17;2.05;;;1.90;;
80175;SDS011;71945;42.122;24.732;2023-08-08T09:05:42;2.28;;;2.08;;
80175;SDS011;71945;42.122;24.732;2023-08-08T09:08:10;2.05;;;1.90;;
80175;SDS011;71945;42.122;24.732;2023-08-08T09:10:37;2.47;;;2.17;;
80175;SDS011;71945;42.122;24.732;2023-08-08T09:13:03;2.45;;;2.00;;
80175;SDS011;71945;42.122;24.732;2023-08-08T09:15:33;2.03;;;1.80;;
80175;SDS011;71945;42.122;24.732;2023-08-08T09:17:59;2.13;;;1.67;;
80175;SDS011;71945;42.122;24.732;2023-08-08T09:20:26;3.22;;;2.30;;
80175;SDS011;71945;42.122;24.732;2023-08-08T09:22:56;3.42;;;1.95;;
80175;SDS011;71945;42.122;24.732;2023-08-08T09:25:21;5.78;;;2.63;;
80175;SDS011;71945;42.122;24.732;2023-08-08T09:27:48;5.53;;;3.25;;
80175;SDS011;71945;42.122;24.732;2023-08-08T09:30:15;4.15;;;3.72;;
80175;SDS011;71945;42.122;24.732;2023-08-08T09:32:42;2.63;;;2.50;;
80175;SDS011;71945;42.122;24.732;2023-08-08T09:35:09;3.15;;;2.08;;
80175;SDS011;71945;42.122;24.732;2023-08-08T09:37:36;2.80;;;2.60;;
80175;SDS011;71945;42.122;24.732;2023-08-08T09:40:03;5.97;;;3.58;;
80175;SDS011;71945;42.122;24.732;2023-08-08T09:42:31;5.47;;;3.00;;
80175;SDS011;71945;42.122;24.732;2023-08-08T09:44:57;3.03;;;2.22;;
80175;SDS011;71945;42.122;24.732;2023-08-08T09:47:26;4.28;;;2.08;;
80175;SDS011;71945;42.122;24.732;2023-08-08T09:50:00;2.88;;;2.28;;
80175;SDS011;71945;42.122;24.732;2023-08-08T09:52:29;2.92;;;2.40;;
80175;SDS011;71945;42.122;24.732;2023-08-08T09:54:58;2.10;;;2.00;;
80175;SDS011;71945;42.122;24.732;2023-08-08T09:57:25;2.80;;;1.80;;
80175;SDS011;71945;42.122;24.732;2023-08-08T09:59:53;2.08;;;1.98;;
80175;SDS011;71945;42.122;24.732;2023-08-08T10:02:20;2.47;;;2.00;;
80175;SDS011;71945;42.122;24.732;2023-08-08T10:04:46;3.05;;;2.33;;
80175;SDS011;71945;42.122;24.732;2023-08-08T10:07:12;3.47;;;2.00;;
80175;SDS011;71945;42.122;24.732;2023-08-08T10:09:39;3.13;;;1.98;;
80175;SDS011;71945;42.122;24.732;2023-08-08T10:12:05;1.95;;;1.60;;
80175;SDS011;71945;42.122;24.732;2023-08-08T10:14:32;2.53;;;1.70;;
80175;SDS011;71945;42.122;24.732;2023-08-08T10:17:05;3.58;;;1.90;;
80175;SDS011;71945;42.122;24.732;2023-08-08T10:19:31;2.25;;;2.05;;
80175;SDS011;71945;42.122;24.732;2023-08-08T10:21:58;2.90;;;1.63;;
80175;SDS011;71945;42.122;24.732;2023-08-08T10:24:38;3.33;;;1.77;;
80175;SDS011;71945;42.122;24.732;2023-08-08T10:27:03;2.15;;;1.58;;
80175;SDS011;71945;42.122;24.732;2023-08-08T10:29:30;8.00;;;2.13;;
80175;SDS011;71945;42.122;24.732;2023-08-08T10:34:39;4.20;;;2.20;;
80175;SDS011;71945;42.122;24.732;2023-08-08T10:39:54;3.50;;;1.90;;
80175;SDS011;71945;42.122;24.732;2023-08-08T10:42:25;3.13;;;1.60;;
80175;SDS011;71945;42.122;24.732;2023-08-08T10:44:52;3.00;;;1.50;;
80175;SDS011;71945;42.122;24.732;2023-08-08T10:47:23;4.18;;;1.60;;
80175;SDS011;71945;42.122;24.732;2023-08-08T10:52:38;2.35;;;1.40;;
80175;SDS011;71945;42.122;24.732;2023-08-08T10:55:20;1.63;;;1.52;;
80175;SDS011;71945;42.122;24.732;2023-08-08T11:00:32;3.00;;;1.38;;
80175;SDS011;71945;42.122;24.732;2023-08-08T11:02:59;1.80;;;1.60;;
80175;SDS011;71945;42.122;24.732;2023-08-08T11:05:27;1.85;;;1.75;;
80175;SDS011;71945;42.122;24.732;2023-08-08T11:07:54;2.30;;;1.50;;
80175;SDS011;71945;42.122;24.732;2023-08-08T11:10:20;3.50;;;1.65;;
80175;SDS011;71945;42.122;24.732;2023-08-08T11:13:03;6.82;;;2.08;;
80175;SDS011;71945;42.122;24.732;2023-08-08T11:15:36;3.35;;;1.80;;
80175;SDS011;71945;42.122;24.732;2023-08-08T11:18:02;3.92;;;2.17;;
80175;SDS011;71945;42.122;24.732;2023-08-08T11:20:32;2.03;;;1.83;;
80175;SDS011;71945;42.122;24.732;2023-08-08T11:22:59;4.00;;;2.22;;
80175;SDS011;71945;42.122;24.732;2023-08-08T11:25:26;2.53;;;2.22;;
80175;SDS011;71945;42.122;24.732;2023-08-08T11:27:53;2.00;;;1.90;;
80175;SDS011;71945;42.122;24.732;2023-08-08T11:30:20;2.10;;;2.00;;
80175;SDS011;71945;42.122;24.732;2023-08-08T11:32:47;2.08;;;1.88;;
80175;SDS011;71945;42.122;24.732;2023-08-08T11:35:17;2.92;;;2.13;;
80175;SDS011;71945;42.122;24.732;2023-08-08T11:37:47;1.70;;;1.60;;
80175;SDS011;71945;42.122;24.732;2023-08-08T11:40:14;3.05;;;2.20;;
80175;SDS011;71945;42.122;24.732;2023-08-08T11:42:40;2.95;;;2.63;;
80175;SDS011;71945;42.122;24.732;2023-08-08T11:45:10;4.93;;;2.60;;
80175;SDS011;71945;42.122;24.732;2023-08-08T11:47:37;5.13;;;2.40;;
80175;SDS011;71945;42.122;24.732;2023-08-08T11:50:05;2.00;;;1.90;;
80175;SDS011;71945;42.122;24.732;2023-08-08T11:52:32;1.77;;;1.50;;
80175;SDS011;71945;42.122;24.732;2023-08-08T11:54:58;2.47;;;1.70;;
80175;SDS011;71945;42.122;24.732;2023-08-08T11:57:27;2.55;;;1.75;;
80175;SDS011;71945;42.122;24.732;2023-08-08T11:59:53;1.88;;;1.30;;
80175;SDS011;71945;42.122;24.732;2023-08-08T12:02:19;1.92;;;1.50;;
80175;SDS011;71945;42.122;24.732;2023-08-08T12:04:45;1.60;;;1.50;;
80175;SDS011;71945;42.122;24.732;2023-08-08T12:07:11;2.15;;;1.95;;
80175;SDS011;71945;42.122;24.732;2023-08-08T12:09:37;3.78;;;2.00;;
80175;SDS011;71945;42.122;24.732;2023-08-08T12:12:03;1.95;;;1.85;;
80175;SDS011;71945;42.122;24.732;2023-08-08T12:14:30;1.70;;;1.60;;
80175;SDS011;71945;42.122;24.732;2023-08-08T12:17:02;5.47;;;1.52;;
80175;SDS011;71945;42.122;24.732;2023-08-08T12:19:28;4.50;;;2.85;;
80175;SDS011;71945;42.122;24.732;2023-08-08T12:21:54;3.08;;;1.58;;
80175;SDS011;71945;42.122;24.732;2023-08-08T12:24:19;1.70;;;1.60;;
80175;SDS011;71945;42.122;24.732;2023-08-08T12:26:45;1.80;;;1.70;;
80175;SDS011;71945;42.122;24.732;2023-08-08T12:29:12;1.95;;;1.52;;
80175;SDS011;71945;42.122;24.732;2023-08-08T12:31:38;3.58;;;1.70;;
80175;SDS011;71945;42.122;24.732;2023-08-08T12:34:07;2.38;;;2.20;;
80175;SDS011;71945;42.122;24.732;2023-08-08T12:36:32;2.83;;;1.67;;
80175;SDS011;71945;42.122;24.732;2023-08-08T12:38:58;2.10;;;1.88;;
80175;SDS011;71945;42.122;24.732;2023-08-08T12:41:24;1.70;;;1.60;;
80175;SDS011;71945;42.122;24.732;2023-08-08T12:43:50;2.30;;;1.55;;
80175;SDS011;71945;42.122;24.732;2023-08-08T12:46:16;1.70;;;1.35;;
80175;SDS011;71945;42.122;24.732;2023-08-08T12:48:42;1.98;;;1.17;;
80175;SDS011;71945;42.122;24.732;2023-08-08T12:51:09;2.38;;;2.10;;
80175;SDS011;71945;42.122;24.732;2023-08-08T12:53:35;2.15;;;1.98;;
80175;SDS011;71945;42.122;24.732;2023-08-08T12:56:01;1.65;;;1.50;;
80175;SDS011;71945;42.122;24.732;2023-08-08T12:58:27;1.98;;;1.70;;
80175;SDS011;71945;42.122;24.732;2023-08-08T13:00:52;3.50;;;1.95;;
80175;SDS011;71945;42.122;24.732;2023-08-08T13:03:18;1.85;;;1.75;;
80175;SDS011;71945;42.122;24.732;2023-08-08T13:05:48;1.85;;;1.50;;
80175;SDS011;71945;42.122;24.732;2023-08-08T13:08:14;4.95;;;1.48;;
80175;SDS011;71945;42.122;24.732;2023-08-08T13:10:39;3.10;;;1.60;;
80175;SDS011;71945;42.122;24.732;2023-08-08T13:13:05;5.97;;;1.50;;
80175;SDS011;71945;42.122;24.732;2023-08-08T13:15:32;3.88;;;1.55;;
80175;SDS011;71945;42.122;24.732;2023-08-08T13:17:57;2.17;;;1.70;;
80175;SDS011;71945;42.122;24.732;2023-08-08T13:20:25;1.77;;;1.63;;
80175;SDS011;71945;42.122;24.732;2023-08-08T13:22:53;2.15;;;1.90;;
80175;SDS011;71945;42.122;24.732;2023-08-08T13:25:19;1.60;;;1.50;;
80175;SDS011;71945;42.122;24.732;2023-08-08T13:27:45;1.85;;;1.40;;
80175;SDS011;71945;42.122;24.732;2023-08-08T13:30:12;3.47;;;1.60;;
80175;SDS011;71945;42.122;24.732;2023-08-08T13:32:40;3.75;;;1.90;;
80175;SDS011;71945;42.122;24.732;2023-08-08T13:35:06;4.72;;;1.60;;
80175;SDS011;71945;42.122;24.732;2023-08-08T13:37:31;1.80;;;1.70;;
80175;SDS011;71945;42.122;24.732;2023-08-08T13:39:57;2.13;;;1.75;;
80175;SDS011;71945;42.122;24.732;2023-08-08T13:42:23;2.00;;;1.80;;
80175;SDS011;71945;42.122;24.732;2023-08-08T13:44:48;2.60;;;2.10;;
80175;SDS011;71945;42.122;24.732;2023-08-08T13:47:14;2.40;;;2.20;;
80175;SDS011;71945;42.122;24.732;2023-08-08T13:49:43;2.20;;;2.00;;
80175;SDS011;71945;42.122;24.732;2023-08-08T13:52:09;3.90;;;2.40;;
80175;SDS011;71945;42.122;24.732;2023-08-08T13:54:37;2.33;;;1.70;;
80175;SDS011;71945;42.122;24.732;2023-08-08T13:57:03;3.17;;;1.77;;
80175;SDS011;71945;42.122;24.732;2023-08-08T13:59:29;1.88;;;1.77;;
80175;SDS011;71945;42.122;24.732;2023-08-08T14:01:55;3.33;;;1.60;;
80175;SDS011;71945;42.122;24.732;2023-08-08T14:04:20;5.13;;;2.05;;
80175;SDS011;71945;42.122;24.732;2023-08-08T14:06:46;3.35;;;2.00;;
80175;SDS011;71945;42.122;24.732;2023-08-08T14:09:12;2.63;;;1.70;;
80175;SDS011;71945;42.122;24.732;2023-08-08T14:11:37;2.45;;;1.65;;
80175;SDS011;71945;42.122;24.732;2023-08-08T14:14:03;3.08;;;1.67;;
80175;SDS011;71945;42.122;24.732;2023-08-08T14:16:28;2.40;;;1.70;;
80175;SDS011;71945;42.122;24.732;2023-08-08T14:18:54;3.28;;;1.80;;
80175;SDS011;71945;42.122;24.732;2023-08-08T14:21:20;6.15;;;1.80;;
80175;SDS011;71945;42.122;24.732;2023-08-08T14:23:45;6.65;;;2.00;;
80175;SDS011;71945;42.122;24.732;2023-08-08T14:26:14;1.70;;;1.50;;
80175;SDS011;71945;42.122;24.732;2023-08-08T14:28:40;1.80;;;1.70;;
80175;SDS011;71945;42.122;24.732;2023-08-08T14:31:05;1.50;;;1.40;;
80175;SDS011;71945;42.122;24.732;2023-08-08T14:33:31;1.75;;;1.65;;
80175;SDS011;71945;42.122;24.732;2023-08-08T14:35:57;3.67;;;2.10;;
80175;SDS011;71945;42.122;24.732;2023-08-08T14:38:23;2.40;;;2.20;;
80175;SDS011;71945;42.122;24.732;2023-08-08T14:40:50;3.58;;;2.00;;
80175;SDS011;71945;42.122;24.732;2023-08-08T14:43:17;2.25;;;1.85;;
80175;SDS011;71945;42.122;24.732;2023-08-08T14:45:43;5.25;;;2.03;;